Time;durP1;ratioP1;P1;durP2;ratioP2;P2;SDS_P1;SDS_P2;PMS_P1;PMS_P2;Temp;Humidity;BMP_temperature;BMP_pressure;BME280_temperature;BME280_humidity;BME280_pressure;Samples;Min_cycle;Max_cycle;Signal;HPM_P1;HPM_P2
2022/08/25 00:01:47;;;;;;;0.57;0.50;;;28.90;43.00;;;;;;5089065;28;20745;-61
2022/08/25 00:04:17;;;;;;;5.00;0.93;;;28.90;43.20;;;;;;5088251;28;20044;-61
2022/08/25 00:06:45;;;;;;;7.82;1.23;;;28.90;43.30;;;;;;5087596;28;20631;-59
2022/08/25 00:09:16;;;;;;;2.88;1.10;;;28.90;43.20;;;;;;5087975;28;20040;-58
2022/08/25 00:11:43;;;;;;;0.80;0.75;;;28.90;43.40;;;;;;5087740;28;20598;-59
2022/08/25 00:14:14;;;;;;;4.28;0.93;;;28.80;43.40;;;;;;5090603;28;20048;-60
2022/08/25 00:16:42;;;;;;;6.25;0.77;;;28.90;43.70;;;;;;5092260;28;20712;-57
2022/08/25 00:19:12;;;;;;;6.07;1.33;;;28.80;43.70;;;;;;5087860;28;20040;-58
2022/08/25 00:21:40;;;;;;;1.48;0.70;;;28.80;43.80;;;;;;5087767;28;20063;-61
2022/08/25 00:24:09;;;;;;;3.22;0.68;;;28.80;43.70;;;;;;5087777;28;20040;-58
2022/08/25 00:26:40;;;;;;;2.50;1.52;;;28.80;43.70;;;;;;5096842;28;20512;-54
2022/08/25 00:29:08;;;;;;;2.03;0.70;;;28.80;43.80;;;;;;5070126;28;20052;-55
2022/08/25 00:31:35;;;;;;;4.00;0.90;;;28.80;43.50;;;;;;5087500;28;20069;-55
2022/08/25 00:34:06;;;;;;;2.70;1.02;;;28.80;43.50;;;;;;5087291;28;20036;-62
2022/08/25 00:36:33;;;;;;;1.75;0.77;;;28.70;43.50;;;;;;5087731;28;20052;-56
2022/08/25 00:39:00;;;;;;;1.45;0.93;;;28.70;43.60;;;;;;5085539;28;20040;-59
2022/08/25 00:41:28;;;;;;;0.93;0.68;;;28.70;43.70;;;;;;5083178;28;20148;-58
2022/08/25 00:43:58;;;;;;;3.95;1.23;;;28.70;43.50;;;;;;5084959;28;20887;-61
2022/08/25 00:46:28;;;;;;;2.92;0.73;;;28.70;43.20;;;;;;5086442;28;20131;-61
2022/08/25 00:48:59;;;;;;;3.95;1.10;;;28.70;43.00;;;;;;5086396;28;20036;-62
2022/08/25 00:51:32;;;;;;;3.08;1.67;;;28.80;42.70;;;;;;5090228;28;20056;-61
2022/08/25 00:54:00;;;;;;;3.90;1.00;;;28.90;42.80;;;;;;5085865;28;20036;-60
2022/08/25 00:56:28;;;;;;;4.72;0.90;;;28.90;42.70;;;;;;5086402;28;20108;-61
2022/08/25 00:58:59;;;;;;;2.63;1.05;;;28.90;42.80;;;;;;5086755;28;20036;-62
2022/08/25 01:01:26;;;;;;;2.83;0.63;;;28.90;42.80;;;;;;5086570;28;20067;-60
2022/08/25 01:03:54;;;;;;;5.53;1.48;;;28.90;43.00;;;;;;5087000;28;20413;-60
2022/08/25 01:06:21;;;;;;;1.52;0.90;;;28.90;43.10;;;;;;5087159;28;20059;-61
2022/08/25 01:08:48;;;;;;;2.35;1.25;;;28.90;43.20;;;;;;5086858;28;20036;-61
2022/08/25 01:11:15;;;;;;;1.25;0.90;;;28.90;43.30;;;;;;5086306;28;20043;-61
2022/08/25 01:13:45;;;;;;;2.22;0.95;;;28.80;43.30;;;;;;5086543;28;20134;-59
2022/08/25 01:16:15;;;;;;;4.60;1.63;;;28.80;43.30;;;;;;5087046;28;20086;-60
2022/08/25 01:18:45;;;;;;;3.28;0.63;;;28.80;43.30;;;;;;5086553;28;20072;-60
2022/08/25 01:21:16;;;;;;;1.25;0.77;;;28.80;43.40;;;;;;5068671;28;20133;-60
2022/08/25 01:23:43;;;;;;;3.92;1.08;;;28.80;43.30;;;;;;5086878;28;20081;-60
2022/08/25 01:26:14;;;;;;;1.88;1.38;;;28.70;43.30;;;;;;5086738;28;20085;-61
2022/08/25 01:31:25;;;;;;;5.32;0.80;;;28.70;43.40;;;;;;5095921;28;20139;-61
2022/08/25 01:33:52;;;;;;;2.28;1.13;;;28.60;43.20;;;;;;5106949;28;20032;-61
2022/08/25 01:36:21;;;;;;;1.95;0.77;;;28.60;43.30;;;;;;5107129;28;20081;-61
2022/08/25 01:38:49;;;;;;;4.75;0.75;;;28.60;43.60;;;;;;5107116;28;20057;-60
2022/08/25 01:41:17;;;;;;;1.80;0.65;;;28.50;43.60;;;;;;5093444;28;20048;-60
2022/08/25 01:43:44;;;;;;;2.90;0.88;;;28.50;43.60;;;;;;5086597;28;20051;-59
2022/08/25 01:46:11;;;;;;;2.20;0.90;;;28.40;43.70;;;;;;5086589;28;20068;-61
2022/08/25 01:48:38;;;;;;;3.80;0.50;;;28.40;43.80;;;;;;5086563;28;20039;-61
2022/08/25 01:51:06;;;;;;;2.42;0.47;;;28.40;43.90;;;;;;5087996;28;20047;-61
2022/08/25 01:53:34;;;;;;;2.13;1.27;;;28.40;43.90;;;;;;5098169;28;20047;-61
2022/08/25 01:56:10;;;;;;;3.90;0.90;;;28.30;43.90;;;;;;5110641;28;20050;-61
2022/08/25 01:58:40;;;;;;;3.65;0.65;;;28.30;44.40;;;;;;5110826;28;20040;-61
2022/08/25 02:01:12;;;;;;;1.85;0.70;;;28.20;43.70;;;;;;5111020;28;20152;-61
2022/08/25 02:03:41;;;;;;;0.82;0.60;;;28.20;43.90;;;;;;5110894;28;20051;-61
2022/08/25 02:06:10;;;;;;;2.97;0.60;;;28.10;43.90;;;;;;5110717;28;20438;-61
2022/08/25 02:08:39;;;;;;;2.50;0.43;;;28.10;43.90;;;;;;5109878;28;20070;-61
2022/08/25 02:11:06;;;;;;;2.00;0.90;;;28.00;43.90;;;;;;5098827;28;20036;-61
2022/08/25 02:13:33;;;;;;;1.63;0.95;;;28.00;44.60;;;;;;5090123;28;20055;-61
2022/08/25 02:16:01;;;;;;;0.98;0.95;;;28.00;44.30;;;;;;5090479;28;20040;-62
2022/08/25 02:18:29;;;;;;;3.72;0.88;;;28.00;44.40;;;;;;5078584;28;20047;-61
2022/08/25 02:20:56;;;;;;;1.90;0.93;;;27.90;44.50;;;;;;5110362;28;20039;-61
2022/08/25 02:23:23;;;;;;;3.88;1.65;;;27.90;44.60;;;;;;5109843;28;20047;-61
2022/08/25 02:25:51;;;;;;;1.85;1.30;;;27.80;44.80;;;;;;5110224;28;20048;-61
2022/08/25 02:28:18;;;;;;;2.63;0.95;;;27.80;45.10;;;;;;5110491;28;20815;-61
2022/08/25 02:30:46;;;;;;;10.85;1.75;;;27.80;45.40;;;;;;5110222;28;20053;-61
2022/08/25 02:33:13;;;;;;;2.33;0.60;;;27.80;45.70;;;;;;5110231;28;20039;-61
2022/08/25 02:35:41;;;;;;;0.68;0.60;;;27.70;45.70;;;;;;5110286;28;20040;-61
2022/08/25 02:38:08;;;;;;;1.33;0.95;;;27.70;45.60;;;;;;5109682;28;20050;-61
2022/08/25 02:40:35;;;;;;;2.80;0.90;;;27.60;45.60;;;;;;5089254;28;20044;-61
2022/08/25 02:43:04;;;;;;;4.05;0.88;;;27.60;45.80;;;;;;5089125;28;20047;-60
2022/08/25 02:45:31;;;;;;;4.53;1.25;;;27.50;45.90;;;;;;5089373;28;20690;-61
2022/08/25 02:47:58;;;;;;;2.05;0.90;;;27.50;46.00;;;;;;5089585;28;20071;-62
2022/08/25 02:50:25;;;;;;;1.98;0.93;;;27.50;46.20;;;;;;5089318;28;20046;-60
2022/08/25 02:52:53;;;;;;;4.53;1.38;;;27.50;46.30;;;;;;5089352;28;20423;-61
2022/08/25 02:55:22;;;;;;;1.10;0.70;;;27.40;46.30;;;;;;5089240;28;20041;-61
2022/08/25 02:57:49;;;;;;;3.35;0.93;;;27.40;46.30;;;;;;5070901;28;20630;-61
2022/08/25 03:00:18;;;;;;;1.40;0.70;;;27.40;46.40;;;;;;5099370;28;20039;-61
2022/08/25 03:02:45;;;;;;;2.25;1.65;;;27.30;46.30;;;;;;5108754;28;20055;-61
2022/08/25 03:05:14;;;;;;;3.25;0.95;;;27.30;46.40;;;;;;5109675;28;20866;-61
2022/08/25 03:07:41;;;;;;;0.82;0.82;;;27.30;46.50;;;;;;5109317;28;20689;-61
2022/08/25 03:10:12;;;;;;;5.38;0.70;;;27.30;46.60;;;;;;5106088;28;20046;-58
2022/08/25 03:12:40;;;;;;;1.95;0.77;;;27.20;46.60;;;;;;5088331;28;20044;-60
2022/08/25 03:15:08;;;;;;;2.15;0.50;;;27.20;47.30;;;;;;5088707;28;20458;-60
2022/08/25 03:17:37;;;;;;;4.90;1.75;;;27.20;47.00;;;;;;5108665;28;20070;-60
2022/08/25 03:20:05;;;;;;;0.38;0.38;;;27.10;47.00;;;;;;5109284;28;20035;-61
2022/08/25 03:22:32;;;;;;;2.42;1.35;;;27.10;47.20;;;;;;5108727;28;20797;-61
2022/08/25 03:26:52;;;;;;;1.70;0.50;;;27.10;47.40;;;;;;5109418;28;20126;-62
2022/08/25 03:27:48;;;;;;;2.15;1.23;;;27.10;47.50;;;;;;5099700;28;20048;-61
2022/08/25 03:30:16;;;;;;;3.20;0.63;;;27.10;48.10;;;;;;5088576;28;20518;-60
2022/08/25 03:32:45;;;;;;;1.58;0.95;;;27.00;47.40;;;;;;5088721;28;20044;-60
2022/08/25 03:35:12;;;;;;;0.90;0.80;;;27.10;47.60;;;;;;5088375;28;20047;-61
2022/08/25 03:37:40;;;;;;;5.88;1.55;;;27.00;47.50;;;;;;5089508;28;20124;-62
2022/08/25 03:40:11;;;;;;;3.63;0.93;;;27.00;47.50;;;;;;5105625;28;20571;-62
2022/08/25 03:42:40;;;;;;;0.93;0.68;;;27.00;47.70;;;;;;5088017;28;20048;-61
2022/08/25 03:45:10;;;;;;;0.77;0.52;;;27.00;47.70;;;;;;5088216;28;20044;-62
2022/08/25 03:47:38;;;;;;;2.50;1.00;;;27.00;47.70;;;;;;5088274;28;20115;-62
2022/08/25 03:50:10;;;;;;;0.80;0.65;;;27.00;47.60;;;;;;5087842;28;20118;-61
2022/08/25 03:52:38;;;;;;;1.63;0.75;;;26.90;47.60;;;;;;5088199;28;20510;-61
2022/08/25 03:55:09;;;;;;;1.85;0.50;;;26.90;47.70;;;;;;5088221;28;20172;-59
2022/08/25 03:57:37;;;;;;;3.35;1.17;;;26.80;47.60;;;;;;5088664;28;20048;-60
2022/08/25 04:00:06;;;;;;;1.88;1.05;;;26.80;48.40;;;;;;5088615;28;20044;-60
2022/08/25 04:02:39;;;;;;;1.83;0.80;;;26.80;47.90;;;;;;5088485;28;20040;-60
2022/08/25 04:05:09;;;;;;;1.48;0.73;;;26.70;47.90;;;;;;5088289;28;20094;-60
2022/08/25 04:07:36;;;;;;;8.15;0.90;;;26.70;48.10;;;;;;5088639;28;20389;-60
2022/08/25 04:10:04;;;;;;;4.93;0.90;;;26.70;48.20;;;;;;5088459;28;20504;-60
2022/08/25 04:12:31;;;;;;;1.15;0.60;;;26.60;48.10;;;;;;5088270;28;20064;-60
2022/08/25 04:14:58;;;;;;;3.38;0.98;;;26.60;48.10;;;;;;5087578;28;20479;-60
2022/08/25 04:17:25;;;;;;;0.47;0.22;;;26.60;48.20;;;;;;5087869;28;20147;-60
2022/08/25 04:19:52;;;;;;;2.33;0.70;;;26.60;48.00;;;;;;5077750;28;20047;-60
2022/08/25 04:22:21;;;;;;;5.38;1.10;;;26.50;47.90;;;;;;5102706;28;20070;-61
2022/08/25 04:24:48;;;;;;;1.67;1.23;;;26.50;48.00;;;;;;5088342;28;20126;-62
2022/08/25 04:27:15;;;;;;;0.68;0.68;;;26.50;47.80;;;;;;5100131;28;20877;-61
2022/08/25 04:29:43;;;;;;;1.85;0.95;;;26.50;47.80;;;;;;5108629;28;20067;-60
2022/08/25 04:32:10;;;;;;;2.25;0.82;;;26.50;48.50;;;;;;5108699;28;20083;-61
2022/08/25 04:34:37;;;;;;;1.17;0.80;;;26.40;47.80;;;;;;5108433;28;20032;-61
2022/08/25 04:37:06;;;;;;;4.32;0.77;;;26.40;47.70;;;;;;5108357;28;20409;-60
2022/08/25 04:39:35;;;;;;;2.83;0.50;;;26.40;47.70;;;;;;5097974;28;20031;-61
2022/08/25 04:42:02;;;;;;;1.73;1.58;;;26.40;47.70;;;;;;5072336;28;20670;-61
2022/08/25 04:44:30;;;;;;;1.25;0.77;;;26.40;47.80;;;;;;5094834;28;20546;-61
2022/08/25 04:46:58;;;;;;;4.57;0.68;;;26.40;47.90;;;;;;5087763;28;20543;-62
2022/08/25 04:49:25;;;;;;;1.58;0.55;;;26.40;47.90;;;;;;5087156;28;20542;-61
2022/08/25 04:51:52;;;;;;;0.95;0.77;;;26.40;47.80;;;;;;5068635;28;20658;-61
2022/08/25 04:54:20;;;;;;;1.05;0.70;;;26.40;47.90;;;;;;5075352;28;20724;-60
2022/08/25 04:56:50;;;;;;;2.30;0.30;;;26.40;48.00;;;;;;5108085;28;20508;-63
2022/08/25 04:59:18;;;;;;;3.50;0.80;;;26.40;47.90;;;;;;5097727;28;20043;-61
2022/08/25 05:01:46;;;;;;;1.73;0.30;;;26.30;47.70;;;;;;5098559;28;20670;-62
2022/08/25 05:04:14;;;;;;;2.97;0.35;;;26.40;47.80;;;;;;5108323;28;20055;-62
2022/08/25 05:06:42;;;;;;;3.63;1.05;;;26.30;47.70;;;;;;5088908;28;20064;-61
2022/08/25 05:09:10;;;;;;;5.60;0.93;;;26.30;47.90;;;;;;5087811;28;20036;-61
2022/08/25 05:11:37;;;;;;;4.35;0.50;;;26.30;47.80;;;;;;5087507;28;20115;-61
2022/08/25 05:14:10;;;;;;;1.17;0.80;;;26.30;47.90;;;;;;5087593;28;20043;-61
2022/08/25 05:16:38;;;;;;;4.70;0.93;;;26.30;47.80;;;;;;5086831;28;20143;-61
2022/08/25 05:19:05;;;;;;;4.28;0.82;;;26.30;47.70;;;;;;5087447;28;20424;-61
2022/08/25 05:21:32;;;;;;;2.17;0.85;;;26.30;47.70;;;;;;5087572;28;20133;-61
2022/08/25 05:24:00;;;;;;;2.70;0.50;;;26.30;47.80;;;;;;5087425;28;20496;-60
2022/08/25 05:26:30;;;;;;;2.60;0.77;;;26.20;47.70;;;;;;5089452;28;20035;-61
2022/08/25 05:28:59;;;;;;;3.70;0.90;;;26.30;47.70;;;;;;5091527;28;20064;-62
2022/08/25 05:31:28;;;;;;;4.03;0.63;;;26.20;47.60;;;;;;5094782;28;20040;-60
2022/08/25 05:33:56;;;;;;;3.75;0.80;;;26.20;47.60;;;;;;5091234;28;20042;-61
2022/08/25 05:36:25;;;;;;;1.40;1.30;;;26.20;47.70;;;;;;5090795;28;20044;-61
2022/08/25 05:38:53;;;;;;;2.67;0.55;;;26.20;47.90;;;;;;5091446;28;20028;-61
2022/08/25 05:41:21;;;;;;;5.53;0.98;;;26.20;47.90;;;;;;5090754;28;20040;-61
2022/08/25 05:43:49;;;;;;;3.40;1.17;;;26.10;48.60;;;;;;5090808;28;20080;-61
2022/08/25 05:46:18;;;;;;;0.88;0.70;;;26.10;48.10;;;;;;5090477;28;20090;-61
2022/08/25 05:48:47;;;;;;;1.60;0.70;;;26.10;48.20;;;;;;5090927;28;20075;-61
2022/08/25 05:51:14;;;;;;;3.97;1.20;;;26.10;48.20;;;;;;5090784;28;20051;-61
2022/08/25 05:53:43;;;;;;;6.47;0.73;;;26.10;48.90;;;;;;5081167;28;20072;-61
2022/08/25 05:56:12;;;;;;;3.47;1.85;;;26.10;48.30;;;;;;5096747;28;20047;-59
2022/08/25 05:58:40;;;;;;;4.22;1.83;;;26.10;48.40;;;;;;5093282;28;20071;-62
2022/08/25 06:03:55;;;;;;;2.05;0.88;;;26.10;48.40;;;;;;5104479;28;20040;-61
2022/08/25 06:06:24;;;;;;;3.53;0.95;;;26.10;48.40;;;;;;5095470;28;20036;-61
2022/08/25 06:08:51;;;;;;;2.15;0.75;;;26.10;48.50;;;;;;5100889;28;20037;-62
2022/08/25 06:11:19;;;;;;;4.03;1.13;;;26.10;48.50;;;;;;5090087;28;20142;-62
2022/08/25 06:13:46;;;;;;;4.07;0.93;;;26.10;48.40;;;;;;5086553;28;20040;-48
2022/08/25 06:16:13;;;;;;;2.80;0.60;;;26.10;48.60;;;;;;5090079;28;20122;-48
2022/08/25 06:18:40;;;;;;;3.65;0.98;;;26.20;48.90;;;;;;5092007;28;20113;-55
2022/08/25 06:21:10;;;;;;;4.97;0.43;;;26.30;49.00;;;;;;5089493;28;20028;-56
2022/08/25 06:23:37;;;;;;;3.38;0.55;;;26.40;48.80;;;;;;5089355;28;20093;-53
2022/08/25 06:26:05;;;;;;;3.10;0.90;;;26.50;48.60;;;;;;5089850;28;20043;-52
2022/08/25 06:28:32;;;;;;;5.10;1.92;;;26.60;48.30;;;;;;5089278;28;20048;-53
2022/08/25 06:31:00;;;;;;;4.22;0.57;;;26.60;48.10;;;;;;5088927;28;20463;-57
2022/08/25 06:33:27;;;;;;;0.93;0.50;;;26.70;47.90;;;;;;5089423;28;20138;-51
2022/08/25 06:35:55;;;;;;;4.18;1.00;;;26.80;47.60;;;;;;5089577;28;20043;-55
2022/08/25 06:38:24;;;;;;;2.88;0.60;;;26.90;47.00;;;;;;5088611;28;20044;-52
2022/08/25 06:40:52;;;;;;;2.42;0.47;;;27.00;46.60;;;;;;5089099;28;20055;-55
2022/08/25 06:43:19;;;;;;;4.28;0.50;;;27.10;46.10;;;;;;5088649;28;20036;-55
2022/08/25 06:45:47;;;;;;;1.55;0.50;;;27.20;45.40;;;;;;5088592;28;20543;-53
2022/08/25 06:48:14;;;;;;;1.15;0.60;;;27.30;44.70;;;;;;5090669;28;20042;-53
2022/08/25 06:50:43;;;;;;;0.60;0.55;;;27.50;44.20;;;;;;5090147;28;20516;-52
2022/08/25 06:53:10;;;;;;;3.78;0.68;;;27.60;43.60;;;;;;5089315;28;20540;-56
2022/08/25 06:55:39;;;;;;;4.10;0.30;;;27.80;43.00;;;;;;5088751;28;20142;-50
2022/08/25 06:58:07;;;;;;;6.60;0.50;;;28.20;42.40;;;;;;5089049;28;20064;-49
2022/08/25 07:00:34;;;;;;;2.47;0.43;;;28.40;41.80;;;;;;5088404;28;20051;-51
2022/08/25 07:03:01;;;;;;;2.72;0.22;;;28.70;41.70;;;;;;5095515;28;20040;-53
2022/08/25 07:05:29;;;;;;;0.98;0.35;;;28.90;40.30;;;;;;5091890;28;20101;-53
2022/08/25 07:07:56;;;;;;;1.60;0.30;;;29.20;39.60;;;;;;5091806;28;20036;-52
2022/08/25 07:10:23;;;;;;;1.95;0.30;;;29.40;38.90;;;;;;5070639;28;20043;-50
2022/08/25 07:12:52;;;;;;;1.10;0.63;;;29.60;38.40;;;;;;5098349;28;20118;-62
2022/08/25 07:15:19;;;;;;;2.22;0.40;;;29.90;37.90;;;;;;5091042;28;20078;-60
2022/08/25 07:17:46;;;;;;;7.15;0.40;;;30.00;37.40;;;;;;5089836;28;20093;-60
2022/08/25 07:20:13;;;;;;;1.80;0.10;;;30.30;37.00;;;;;;5089303;28;20032;-58
2022/08/25 07:22:41;;;;;;;3.90;0.68;;;30.50;36.70;;;;;;5088570;28;20036;-55
2022/08/25 07:25:10;;;;;;;1.25;0.20;;;30.60;36.40;;;;;;5088790;28;20066;-56
2022/08/25 07:27:38;;;;;;;1.15;0.20;;;30.80;36.00;;;;;;5090474;28;20050;-57
2022/08/25 07:30:09;;;;;;;3.10;0.50;;;30.90;35.70;;;;;;5088868;28;20036;-60
2022/08/25 07:32:36;;;;;;;3.92;0.20;;;31.10;35.40;;;;;;5086108;28;20131;-55
2022/08/25 07:35:16;;;;;;;5.53;0.40;;;31.20;35.10;;;;;;5089455;28;20827;-57
2022/08/25 07:37:43;;;;;;;0.20;0.20;;;31.40;34.90;;;;;;5088301;28;20754;-54
2022/08/25 07:40:13;;;;;;;3.20;0.30;;;31.60;34.70;;;;;;5088117;28;20040;-55
2022/08/25 07:42:41;;;;;;;0.68;0.30;;;31.70;34.20;;;;;;5096864;28;20456;-53
2022/08/25 07:45:11;;;;;;;1.58;0.40;;;31.80;33.90;;;;;;5095485;28;20051;-58
2022/08/25 07:47:39;;;;;;;3.38;0.32;;;31.90;33.70;;;;;;5088273;28;20052;-52
2022/08/25 07:50:08;;;;;;;3.58;0.43;;;32.10;33.70;;;;;;5088042;28;20123;-53
2022/08/25 07:52:35;;;;;;;2.42;0.20;;;32.20;33.50;;;;;;5088137;28;20064;-54
2022/08/25 07:55:03;;;;;;;3.60;0.28;;;32.30;33.30;;;;;;5088072;28;20497;-54
2022/08/25 07:57:31;;;;;;;2.03;0.73;;;32.50;33.10;;;;;;5087729;28;20040;-53
2022/08/25 07:59:58;;;;;;;0.88;0.40;;;32.60;32.80;;;;;;5088267;28;20059;-55
2022/08/25 08:02:27;;;;;;;3.80;0.75;;;32.70;32.70;;;;;;5087688;28;20048;-54
2022/08/25 08:04:54;;;;;;;4.63;0.25;;;32.90;32.50;;;;;;5087843;28;20100;-56
2022/08/25 08:07:24;;;;;;;1.77;0.20;;;33.10;32.40;;;;;;5088225;28;20060;-54
2022/08/25 08:09:51;;;;;;;5.78;0.47;;;33.20;32.20;;;;;;5087707;28;20146;-54
2022/08/25 08:12:18;;;;;;;0.50;0.30;;;33.30;31.90;;;;;;5069290;28;20131;-56
2022/08/25 08:14:46;;;;;;;3.97;0.63;;;33.50;31.70;;;;;;5087679;28;20067;-56
2022/08/25 08:17:13;;;;;;;1.40;0.20;;;33.60;32.10;;;;;;5072775;28;20044;-54
2022/08/25 08:19:42;;;;;;;1.77;0.32;;;33.60;31.20;;;;;;5095566;28;20121;-56
2022/08/25 08:22:10;;;;;;;1.98;0.38;;;33.70;31.10;;;;;;5090815;28;20046;-54
2022/08/25 08:24:38;;;;;;;3.17;0.30;;;33.80;31.10;;;;;;5088479;28;20047;-53
2022/08/25 08:27:07;;;;;;;8.63;0.68;;;33.80;31.10;;;;;;5087550;28;20094;-52
2022/08/25 08:29:35;;;;;;;2.25;0.20;;;33.90;31.10;;;;;;5098469;28;20039;-53
2022/08/25 08:32:02;;;;;;;4.03;0.32;;;33.90;31.20;;;;;;5087419;28;20039;-53
2022/08/25 08:34:30;;;;;;;6.18;0.30;;;34.00;31.20;;;;;;5087497;28;20032;-56
2022/08/25 08:36:59;;;;;;;4.18;0.30;;;34.10;31.30;;;;;;5090937;28;20036;-56
2022/08/25 08:39:27;;;;;;;4.97;0.47;;;34.20;31.20;;;;;;5087381;28;20546;-56
2022/08/25 08:42:17;;;;;;;6.05;0.85;;;34.30;31.30;;;;;;5087240;28;20036;-55
2022/08/25 08:45:07;;;;;;;6.45;0.73;;;34.40;31.30;;;;;;5087179;28;20082;-56
2022/08/25 08:47:47;;;;;;;0.80;0.40;;;34.50;31.20;;;;;;5087295;28;20032;-59
2022/08/25 08:50:25;;;;;;;3.10;0.55;;;34.50;31.10;;;;;;5086559;28;20040;-53
2022/08/25 08:52:59;;;;;;;1.67;0.40;;;34.60;31.10;;;;;;5086997;28;20071;-55
2022/08/25 08:55:32;;;;;;;1.17;0.30;;;34.60;30.90;;;;;;5086628;28;20583;-50
2022/08/25 08:58:03;;;;;;;0.20;0.20;;;34.70;30.90;;;;;;5091747;28;20431;-53
2022/08/25 09:00:33;;;;;;;0.80;0.57;;;34.70;31.00;;;;;;5084069;28;20559;-57
2022/08/25 09:03:05;;;;;;;5.35;0.88;;;34.80;31.10;;;;;;5086682;28;20040;-50
2022/08/25 09:05:39;;;;;;;4.13;0.55;;;34.80;31.20;;;;;;5087284;28;20072;-60
2022/08/25 09:08:11;;;;;;;2.70;0.32;;;34.90;31.50;;;;;;5087206;28;20044;-59
2022/08/25 09:10:50;;;;;;;2.53;0.32;;;35.00;31.60;;;;;;5086772;28;20055;-59
2022/08/25 09:13:29;;;;;;;3.03;0.55;;;35.00;31.70;;;;;;5087198;28;20404;-60
2022/08/25 09:18:56;;;;;;;1.48;0.30;;;35.10;31.80;;;;;;5068582;28;20040;-60
2022/08/25 09:21:33;;;;;;;0.88;0.77;;;35.10;32.00;;;;;;5068116;28;20044;-60
2022/08/25 09:24:23;;;;;;;1.75;0.50;;;35.20;32.10;;;;;;5086889;28;20572;-58
2022/08/25 09:27:03;;;;;;;2.55;0.50;;;35.20;32.10;;;;;;5079773;28;20051;-55
2022/08/25 09:29:42;;;;;;;1.35;0.50;;;35.20;32.20;;;;;;5087280;28;20136;-57
2022/08/25 09:32:09;;;;;;;2.22;0.52;;;35.20;32.30;;;;;;5086362;28;20097;-58
2022/08/25 09:34:37;;;;;;;0.77;0.50;;;35.20;32.30;;;;;;5069468;28;20492;-61
2022/08/25 09:37:04;;;;;;;0.22;0.20;;;35.30;32.30;;;;;;5086564;28;20102;-63
2022/08/25 09:39:33;;;;;;;1.85;0.32;;;35.30;32.20;;;;;;5086124;28;20047;-62
2022/08/25 09:42:00;;;;;;;0.80;0.50;;;35.30;32.20;;;;;;5087621;28;20081;-63
2022/08/25 09:44:31;;;;;;;6.20;0.30;;;35.20;32.20;;;;;;5085909;28;20048;-63
2022/08/25 09:47:01;;;;;;;1.90;0.20;;;35.10;32.10;;;;;;5086556;28;20466;-63
2022/08/25 09:49:37;;;;;;;5.07;0.40;;;35.00;32.10;;;;;;5086259;28;20048;-62
2022/08/25 09:52:33;;;;;;;1.77;0.45;;;34.90;32.10;;;;;;5065266;28;20044;-61
2022/08/25 09:55:25;;;;;;;1.13;0.80;;;34.80;32.20;;;;;;5085914;28;20071;-61
2022/08/25 09:57:55;;;;;;;4.32;0.57;;;34.60;32.20;;;;;;5085948;28;20052;-62
2022/08/25 10:00:27;;;;;;;2.45;0.30;;;34.50;32.30;;;;;;5086389;28;20032;-62
2022/08/25 10:03:12;;;;;;;2.25;0.75;;;34.40;32.40;;;;;;5081060;28;20044;-62
2022/08/25 10:06:06;;;;;;;1.58;0.88;;;34.30;32.50;;;;;;5086058;28;20372;-61
2022/08/25 10:08:36;;;;;;;5.55;0.30;;;34.20;32.60;;;;;;5076460;28;20047;-62
2022/08/25 10:11:08;;;;;;;4.78;0.32;;;34.10;32.70;;;;;;5088657;28;20040;-62
2022/08/25 10:13:39;;;;;;;4.35;0.77;;;34.00;32.90;;;;;;5089767;28;20040;-61
2022/08/25 10:16:11;;;;;;;0.60;0.20;;;33.90;33.00;;;;;;5089780;28;20040;-61
2022/08/25 10:18:38;;;;;;;3.28;0.80;;;33.80;33.00;;;;;;5090022;28;20097;-61
2022/08/25 10:21:11;;;;;;;2.10;0.95;;;33.70;33.00;;;;;;5088846;28;20046;-63
2022/08/25 10:23:43;;;;;;;2.67;0.47;;;33.70;33.40;;;;;;5090384;28;20097;-61
2022/08/25 10:26:33;;;;;;;6.32;0.50;;;33.60;34.10;;;;;;5090394;28;20525;-61
2022/08/25 10:29:15;;;;;;;11.02;2.45;;;33.60;33.60;;;;;;5090234;28;20585;-63
2022/08/25 10:31:50;;;;;;;2.67;0.50;;;33.50;33.30;;;;;;5089298;28;20881;-64
2022/08/25 10:34:44;;;;;;;3.45;0.70;;;33.40;33.30;;;;;;5087120;28;20701;-65
2022/08/25 10:37:18;;;;;;;3.40;0.30;;;33.20;33.60;;;;;;5084994;28;20082;-64
2022/08/25 10:39:56;;;;;;;2.38;0.35;;;33.10;33.90;;;;;;5075296;28;20105;-64
2022/08/25 10:42:36;;;;;;;0.93;0.20;;;33.10;34.10;;;;;;5095483;28;20044;-64
2022/08/25 10:48:18;;;;;;;1.10;0.40;;;33.00;34.20;;;;;;5059829;28;20115;-65
2022/08/25 10:50:51;;;;;;;2.85;0.30;;;33.00;34.50;;;;;;5088384;28;20516;-64
2022/08/25 10:53:26;;;;;;;8.07;0.40;;;32.90;34.50;;;;;;5090978;28;20595;-64
2022/08/25 10:56:04;;;;;;;0.40;0.28;;;32.90;34.50;;;;;;5071178;28;20105;-64
2022/08/25 10:58:50;;;;;;;1.00;0.52;;;32.90;34.50;;;;;;5089685;28;20036;-64
2022/08/25 11:01:26;;;;;;;5.00;0.30;;;32.90;34.60;;;;;;5089793;28;20055;-64
2022/08/25 11:03:59;;;;;;;1.27;0.35;;;32.90;34.50;;;;;;5074458;28;20063;-64
2022/08/25 11:06:36;;;;;;;1.70;0.28;;;32.90;34.60;;;;;;5090387;28;20084;-60
2022/08/25 11:09:07;;;;;;;6.60;0.20;;;33.00;35.00;;;;;;5089078;28;20070;-66
2022/08/25 11:11:38;;;;;;;0.47;0.35;;;32.90;34.80;;;;;;5088520;28;20078;-64
2022/08/25 11:14:10;;;;;;;1.23;0.30;;;33.00;34.90;;;;;;5094539;28;20046;-63
2022/08/25 11:16:43;;;;;;;1.48;0.20;;;33.00;35.10;;;;;;5094491;28;20088;-63
2022/08/25 11:19:20;;;;;;;1.38;0.20;;;33.00;35.10;;;;;;5092499;28;20119;-62
2022/08/25 11:21:52;;;;;;;3.33;0.50;;;33.00;35.00;;;;;;5087449;28;20048;-62
2022/08/25 11:24:34;;;;;;;2.65;0.20;;;33.00;34.90;;;;;;5087146;28;20497;-62
2022/08/25 11:27:05;;;;;;;1.70;0.40;;;33.10;34.90;;;;;;5095705;28;20039;-62
2022/08/25 11:29:37;;;;;;;0.30;0.20;;;33.10;34.80;;;;;;5091505;28;20451;-63
2022/08/25 11:32:05;;;;;;;4.05;0.20;;;33.10;34.80;;;;;;5069966;28;20059;-62
2022/08/25 11:34:35;;;;;;;2.45;0.20;;;33.10;34.70;;;;;;5087585;28;20062;-61
2022/08/25 11:37:08;;;;;;;2.72;0.20;;;33.10;34.60;;;;;;5088160;28;20111;-63
2022/08/25 11:40:09;;;;;;;7.13;0.35;;;33.10;34.60;;;;;;5088549;28;20070;-62
2022/08/25 11:42:52;;;;;;;4.28;0.20;;;33.20;34.50;;;;;;5093497;28;20048;-62
2022/08/25 11:45:37;;;;;;;1.27;0.40;;;33.20;34.50;;;;;;5089042;28;20040;-62
2022/08/25 11:48:16;;;;;;;4.00;0.40;;;33.20;34.30;;;;;;5086749;28;20097;-63
2022/08/25 11:51:01;;;;;;;0.43;0.20;;;33.20;34.30;;;;;;5074234;28;20405;-62
2022/08/25 11:53:30;;;;;;;1.95;0.50;;;33.20;34.20;;;;;;5086162;28;20043;-63
2022/08/25 11:56:01;;;;;;;3.90;0.30;;;33.20;34.20;;;;;;5090611;28;20036;-62
2022/08/25 11:58:37;;;;;;;0.73;0.47;;;33.30;34.20;;;;;;5087896;28;20097;-62
2022/08/25 12:01:09;;;;;;;0.52;0.52;;;33.30;34.10;;;;;;5086209;28;20061;-62
2022/08/25 12:04:11;;;;;;;5.78;0.43;;;33.30;34.10;;;;;;5087531;28;20051;-66
2022/08/25 12:07:21;;;;;;;4.07;0.32;;;33.40;34.10;;;;;;5078687;28;20044;-66
2022/08/25 12:10:15;;;;;;;0.80;0.20;;;33.40;34.10;;;;;;5072040;28;20064;-66
2022/08/25 12:13:04;;;;;;;5.38;0.50;;;33.40;34.20;;;;;;5083746;28;20039;-67
2022/08/25 12:15:54;;;;;;;0.35;0.30;;;33.40;34.30;;;;;;5087015;28;20056;-66
2022/08/25 12:18:45;;;;;;;0.90;0.50;;;33.40;34.40;;;;;;5092401;28;20044;-67
2022/08/25 12:21:29;;;;;;;0.22;0.20;;;33.50;34.50;;;;;;5078680;28;20031;-66
2022/08/25 12:24:11;;;;;;;6.72;0.20;;;33.50;34.70;;;;;;5087886;28;20035;-66
2022/08/25 12:26:45;;;;;;;0.40;0.38;;;33.50;34.80;;;;;;5084682;28;20445;-66
2022/08/25 12:29:16;;;;;;;3.85;0.20;;;33.50;34.90;;;;;;5085912;28;20047;-66
2022/08/25 12:32:01;;;;;;;0.30;0.20;;;33.60;35.00;;;;;;5088869;28;20130;-65
2022/08/25 12:34:48;;;;;;;3.50;0.22;;;33.60;35.00;;;;;;5095879;28;20059;-67
2022/08/25 12:37:18;;;;;;;0.32;0.20;;;33.70;35.20;;;;;;5087147;28;20504;-65
2022/08/25 12:39:58;;;;;;;2.65;0.55;;;33.70;35.20;;;;;;5084574;28;20123;-65
2022/08/25 12:42:31;;;;;;;3.03;0.50;;;33.70;35.90;;;;;;5085184;28;20048;-64
2022/08/25 12:45:34;;;;;;;1.67;0.35;;;33.70;35.30;;;;;;5071575;28;20044;-64
2022/08/25 12:48:39;;;;;;;5.95;0.47;;;33.80;35.40;;;;;;5087497;28;20073;-65
2022/08/25 12:51:14;;;;;;;3.47;0.45;;;33.80;35.50;;;;;;5084783;28;20040;-63
2022/08/25 12:53:44;;;;;;;4.15;0.30;;;33.80;35.70;;;;;;5086892;28;20606;-64
2022/08/25 12:56:21;;;;;;;2.45;1.13;;;33.80;35.90;;;;;;5086847;28;20451;-57
2022/08/25 12:58:53;;;;;;;6.25;0.28;;;33.90;36.30;;;;;;5085757;28;20046;-72
2022/08/25 13:01:31;;;;;;;1.05;0.20;;;33.90;36.40;;;;;;5068049;28;20147;-59
2022/08/25 13:04:25;;;;;;;1.02;0.30;;;33.90;36.70;;;;;;5089487;28;20047;-58
2022/08/25 13:07:19;;;;;;;1.08;0.20;;;34.00;36.50;;;;;;5079859;28;20083;-57
2022/08/25 13:10:17;;;;;;;0.32;0.15;;;34.00;36.50;;;;;;5070627;28;20051;-61
2022/08/25 13:12:50;;;;;;;1.58;0.20;;;34.10;36.50;;;;;;5086929;28;20074;-69
2022/08/25 13:15:28;;;;;;;1.60;0.20;;;34.10;36.30;;;;;;5086751;28;20187;-61
2022/08/25 13:17:56;;;;;;;1.50;0.47;;;34.20;36.40;;;;;;5083617;28;20040;-75
2022/08/25 13:20:28;;;;;;;0.45;0.10;;;34.20;36.40;;;;;;5087178;28;20036;-71
2022/08/25 13:23:00;;;;;;;6.72;0.68;;;34.30;37.10;;;;;;5096861;28;20051;-65